createdAt,value
2023-03-08T00:03:37.524Z,98573.84
2023-03-08T00:07:39.566Z,98585.38
2023-03-08T00:11:41.562Z,98582.50
2023-03-08T00:15:44.378Z,98582.94
2023-03-08T00:19:46.421Z,98586.19
2023-03-08T00:23:51.374Z,98592.44
2023-03-08T00:27:53.448Z,98598.56
2023-03-08T00:31:56.716Z,98602.84
2023-03-08T00:36:01.171Z,98577.75
2023-03-08T00:40:05.805Z,98591.88
2023-03-08T00:44:10.242Z,98600.25
2023-03-08T00:48:12.599Z,98594.13
2023-03-08T00:52:14.395Z,98588.78
2023-03-08T00:56:16.468Z,98595.16
2023-03-08T01:00:18.741Z,98588.53
2023-03-08T01:04:20.782Z,98593.78
2023-03-08T01:08:25.007Z,98591.94
2023-03-08T01:12:27.290Z,98593.09
2023-03-08T01:16:31.411Z,98597.13
2023-03-08T01:20:34.145Z,98596.94
2023-03-08T01:24:39.658Z,98586.53
2023-03-08T01:28:42.478Z,98586.00
2023-03-08T01:32:44.747Z,98579.75
2023-03-08T01:36:46.996Z,98582.25
2023-03-08T01:40:59.671Z,98574.13
2023-03-08T01:45:05.796Z,98588.25
2023-03-08T01:49:17.533Z,98588.53
2023-03-08T01:53:19.870Z,98581.41
2023-03-08T01:57:25.980Z,98586.84
2023-03-08T02:01:28.350Z,98581.19
2023-03-08T02:05:33.496Z,98586.84
2023-03-08T02:09:44.141Z,98584.69
2023-03-08T02:13:47.349Z,98582.72
2023-03-08T02:17:49.771Z,98577.69
2023-03-08T02:21:51.939Z,98588.16
2023-03-08T02:25:57.520Z,98582.31
2023-03-08T02:29:59.448Z,98583.56
2023-03-08T02:34:01.628Z,98574.16
2023-03-08T02:38:03.682Z,98584.63
2023-03-08T02:42:07.190Z,98585.88
2023-03-08T02:46:13.821Z,98590.75
2023-03-08T02:50:16.198Z,98580.56
2023-03-08T02:54:18.174Z,98589.41
2023-03-08T02:58:20.311Z,98592.91
2023-03-08T03:02:22.271Z,98595.34
2023-03-08T03:06:24.146Z,98587.09
2023-03-08T03:10:30.054Z,98607.03
2023-03-08T03:14:32.593Z,98602.53
2023-03-08T03:18:35.908Z,98605.75
2023-03-08T03:22:38.144Z,98607.59
2023-03-08T03:26:42.095Z,98610.25
2023-03-08T03:30:44.696Z,98616.94
2023-03-08T03:34:49.195Z,98622.31
2023-03-08T03:38:55.078Z,98615.25
2023-03-08T03:42:57.978Z,98622.88
2023-03-08T03:47:00.125Z,98625.81
2023-03-08T03:51:10.420Z,98632.47
2023-03-08T03:55:13.715Z,98635.63
2023-03-08T03:59:16.287Z,98639.94
2023-03-08T04:03:18.944Z,98646.13
2023-03-08T04:07:21.984Z,98651.75
2023-03-08T04:11:36.886Z,98650.28
2023-03-08T04:15:40.182Z,98656.53
2023-03-08T04:19:49.192Z,98649.53
2023-03-08T04:23:52.721Z,98654.84
2023-03-08T04:27:55.430Z,98655.38
2023-03-08T04:32:00.314Z,98654.09
2023-03-08T04:36:10.008Z,98652.47
2023-03-08T04:40:13.263Z,98654.28
2023-03-08T04:44:26.118Z,98648.84
2023-03-08T04:48:29.002Z,98654.38
2023-03-08T04:52:31.277Z,98671.88
2023-03-08T04:56:33.156Z,98680.66
2023-03-08T05:00:35.855Z,98682.63
2023-03-08T05:04:38.779Z,98680.13
2023-03-08T05:08:41.955Z,98678.31
2023-03-08T05:12:44.254Z,98683.00
2023-03-08T05:16:46.395Z,98676.31
2023-03-08T05:20:59.715Z,98685.56
2023-03-08T05:25:02.497Z,98703.50
2023-03-08T05:29:06.375Z,98708.59
2023-03-08T05:33:09.117Z,98716.97
2023-03-08T05:37:11.322Z,98727.00
2023-03-08T05:41:16.808Z,98735.75
2023-03-08T05:45:23.222Z,98740.22
2023-03-08T05:49:25.538Z,98754.75
2023-03-08T05:53:27.787Z,98765.09
2023-03-08T05:57:30.063Z,98769.66
2023-03-08T06:01:32.196Z,98775.78
2023-03-08T06:05:46.813Z,98786.31
2023-03-08T06:09:48.978Z,98804.97
2023-03-08T06:13:53.404Z,98816.56
2023-03-08T06:17:58.242Z,98833.03
2023-03-08T06:22:01.760Z,98835.69
2023-03-08T06:26:06.209Z,98858.94
2023-03-08T06:30:11.025Z,98875.06
2023-03-08T06:34:13.499Z,98896.41
2023-03-08T06:38:16.830Z,98908.06
2023-03-08T06:42:20.997Z,98934.66
2023-03-08T06:46:28.121Z,98942.13
2023-03-08T06:50:30.337Z,98953.03
2023-03-08T06:54:33.714Z,98961.69
2023-03-08T06:58:38.768Z,98968.78
2023-03-08T07:02:41.134Z,98982.72
2023-03-08T07:06:43.839Z,98979.88
2023-03-08T07:10:45.752Z,98983.28
2023-03-08T07:14:48.061Z,98996.97
2023-03-08T07:18:50.257Z,99005.94
2023-03-08T07:22:52.772Z,99001.50
2023-03-08T07:26:54.845Z,99017.97
2023-03-08T07:30:56.969Z,99013.97
2023-03-08T07:34:59.022Z,99015.72
2023-03-08T07:39:01.152Z,99015.78
2023-03-08T07:43:03.753Z,99022.19
2023-03-08T07:47:23.497Z,99038.13
2023-03-08T07:51:25.712Z,99041.34
2023-03-08T07:55:28.362Z,99049.97
2023-03-08T07:59:30.620Z,99053.63
2023-03-08T08:03:32.768Z,99047.19
2023-03-08T08:07:34.998Z,99061.78
2023-03-08T08:11:37.515Z,99067.16
2023-03-08T08:15:39.549Z,99070.38
2023-03-08T08:19:41.779Z,99072.47
2023-03-08T08:23:44.071Z,99077.00
2023-03-08T08:27:46.654Z,99076.22
2023-03-08T08:31:48.855Z,99081.22
2023-03-08T08:35:51.158Z,99080.09
2023-03-08T08:39:53.226Z,99085.03
2023-03-08T08:43:59.014Z,99093.47
2023-03-08T08:48:01.162Z,99088.06
2023-03-08T08:52:03.564Z,99096.44
2023-03-08T08:56:26.567Z,99101.28
2023-03-08T09:00:33.582Z,99093.16
2023-03-08T09:04:35.689Z,99109.06
2023-03-08T09:08:38.147Z,99099.06
2023-03-08T09:12:41.239Z,99105.22
2023-03-08T09:16:43.342Z,99110.50
2023-03-08T09:20:45.511Z,99120.75
2023-03-08T09:24:49.305Z,99126.97
2023-03-08T09:28:51.301Z,99124.72
2023-03-08T09:32:53.438Z,99119.88
2023-03-08T09:36:55.541Z,99120.69
2023-03-08T09:41:13.348Z,99125.44
2023-03-08T09:45:23.522Z,99114.31
2023-03-08T09:49:30.596Z,99106.44
2023-03-08T09:53:39.540Z,99119.72
2023-03-08T09:57:49.882Z,99110.63
2023-03-08T10:02:35.133Z,99117.00
2023-03-08T10:06:47.783Z,99116.88
2023-03-08T10:11:05.186Z,99122.53
2023-03-08T10:15:20.325Z,99116.97
2023-03-08T10:19:33.046Z,99123.66
2023-03-08T10:23:36.909Z,99125.63
2023-03-08T10:27:39.188Z,99129.41
2023-03-08T10:31:44.329Z,99120.00
2023-03-08T10:36:12.638Z,99124.22
2023-03-08T10:40:20.484Z,99118.97
2023-03-08T10:44:40.721Z,99127.72
2023-03-08T10:48:43.071Z,99114.66
2023-03-08T10:52:47.116Z,99128.25
2023-03-08T10:56:59.110Z,99117.84
2023-03-08T11:01:05.213Z,99114.44
2023-03-08T11:05:23.038Z,99119.88
2023-03-08T11:09:27.882Z,99119.59
2023-03-08T11:13:33.477Z,99131.94
2023-03-08T11:17:39.441Z,99137.00
2023-03-08T11:22:23.834Z,99130.41
2023-03-08T11:26:58.687Z,99113.97
2023-03-08T11:31:19.103Z,99108.63
2023-03-08T11:36:00.118Z,99119.28
2023-03-08T11:40:23.908Z,99112.50
2023-03-08T11:44:41.810Z,99111.16
2023-03-08T11:49:01.294Z,99104.94
2023-03-08T11:53:22.791Z,99105.28
2023-03-08T11:57:29.027Z,99096.47
2023-03-08T12:01:51.363Z,99091.19
2023-03-08T12:05:57.108Z,99091.91
2023-03-08T12:10:25.308Z,99097.44
2023-03-08T12:14:33.029Z,99097.38
2023-03-08T12:18:46.684Z,99088.06
2023-03-08T12:23:06.669Z,99093.78
2023-03-08T12:27:20.684Z,99106.75
2023-03-08T12:31:29.935Z,99103.19
2023-03-08T12:35:37.887Z,99090.78
2023-03-08T12:39:40.508Z,99102.94
2023-03-08T12:43:43.241Z,99100.25
2023-03-08T12:48:08.778Z,99094.75
2023-03-08T12:52:20.275Z,99093.53
2023-03-08T12:56:31.269Z,99102.38
2023-03-08T13:00:36.604Z,99095.28
2023-03-08T13:04:42.159Z,99088.09
2023-03-08T13:08:53.882Z,99092.56
2023-03-08T13:13:06.765Z,99097.03
2023-03-08T13:17:30.338Z,99082.84
2023-03-08T13:21:35.632Z,99091.22
2023-03-08T13:25:56.105Z,99100.31
2023-03-08T13:30:02.944Z,99089.56
2023-03-08T13:34:27.947Z,99084.19
2023-03-08T13:38:36.058Z,99081.94
2023-03-08T13:42:52.290Z,99085.16
2023-03-08T13:46:56.883Z,99077.78
2023-03-08T13:50:59.661Z,99071.50
2023-03-08T13:55:06.131Z,99072.06
2023-03-08T13:59:18.757Z,99071.81
2023-03-08T14:03:20.976Z,99059.91
2023-03-08T14:07:26.140Z,99058.69
2023-03-08T14:11:30.995Z,99051.69
2023-03-08T14:15:37.779Z,99048.94
2023-03-08T14:19:40.541Z,99048.13
2023-03-08T14:23:47.937Z,99041.88
2023-03-08T14:27:50.340Z,99050.25
2023-03-08T14:31:54.197Z,99043.66
2023-03-08T14:36:00.018Z,99044.63
2023-03-08T14:40:19.354Z,99040.22
2023-03-08T14:44:26.833Z,99026.13
2023-03-08T14:48:37.097Z,99033.25
2023-03-08T14:52:46.645Z,99023.66
2023-03-08T14:56:50.083Z,99024.44
2023-03-08T15:00:57.186Z,99020.69
2023-03-08T15:05:00.151Z,99021.19
2023-03-08T15:09:03.962Z,99008.72
2023-03-08T15:13:21.218Z,99005.09
2023-03-08T15:17:24.103Z,98997.06
2023-03-08T15:21:29.306Z,99008.50
2023-03-08T15:25:35.220Z,99005.66
2023-03-08T15:29:38.376Z,99004.03
2023-03-08T15:33:40.419Z,99000.59
2023-03-08T15:37:43.862Z,98995.00
2023-03-08T15:41:47.231Z,98991.91
2023-03-08T15:45:49.324Z,98992.81
2023-03-08T15:49:51.543Z,98999.06
2023-03-08T15:53:53.559Z,98992.97
2023-03-08T15:57:56.106Z,98988.16
2023-03-08T16:01:58.224Z,98994.34
2023-03-08T16:06:01.333Z,98997.50
2023-03-08T16:10:05.369Z,98998.28
2023-03-08T16:14:07.688Z,99005.88
2023-03-08T16:18:09.907Z,99005.09
2023-03-08T16:22:12.079Z,99005.94
2023-03-08T16:26:17.527Z,99009.22
2023-03-08T16:30:20.089Z,98995.53
2023-03-08T16:34:22.186Z,99000.88
2023-03-08T16:38:24.477Z,99000.56
2023-03-08T16:42:26.436Z,98998.50
2023-03-08T16:46:29.207Z,98999.56
2023-03-08T16:50:31.220Z,99000.56
2023-03-08T16:54:33.482Z,98999.72
2023-03-08T16:58:35.472Z,98995.28
2023-03-08T17:02:37.681Z,98996.28
2023-03-08T17:06:39.915Z,98995.91
2023-03-08T17:10:44.132Z,98994.47
2023-03-08T17:14:46.305Z,98993.84
2023-03-08T17:18:49.426Z,98986.28
2023-03-08T17:22:51.384Z,98984.78
2023-03-08T17:26:53.727Z,98991.41
2023-03-08T17:30:55.851Z,98990.97
2023-03-08T17:34:58.245Z,98981.66
2023-03-08T17:39:00.599Z,98975.34
2023-03-08T17:43:02.929Z,98978.69
2023-03-08T17:47:05.085Z,98979.75
2023-03-08T17:51:09.946Z,98976.78
2023-03-08T17:55:12.541Z,98966.88
2023-03-08T17:59:16.724Z,98965.97
2023-03-08T18:03:19.211Z,98954.28
2023-03-08T18:07:21.611Z,98946.34
2023-03-08T18:11:24.150Z,98944.06
2023-03-08T18:15:26.708Z,98939.72
2023-03-08T18:19:28.980Z,98928.19
2023-03-08T18:23:31.800Z,98922.94
2023-03-08T18:27:33.728Z,98916.00
2023-03-08T18:31:37.305Z,98909.44
2023-03-08T18:35:39.435Z,98893.38
2023-03-08T18:39:41.773Z,98871.28
2023-03-08T18:43:44.099Z,98859.50
2023-03-08T18:47:50.079Z,98833.38
2023-03-08T18:51:52.318Z,98827.22
2023-03-08T18:55:56.801Z,98817.03
2023-03-08T18:59:58.749Z,98815.19
2023-03-08T19:04:07.004Z,98817.25
2023-03-08T19:08:09.287Z,98818.19
2023-03-08T19:12:12.609Z,98813.31
2023-03-08T19:16:23.322Z,98811.13
2023-03-08T19:20:26.574Z,98823.53
2023-03-08T19:24:28.756Z,98822.97
2023-03-08T19:28:30.765Z,98822.16
2023-03-08T19:32:32.503Z,98815.44
2023-03-08T19:36:37.831Z,98812.66
2023-03-08T19:40:43.679Z,98816.22
2023-03-08T19:44:50.490Z,98814.53
2023-03-08T19:48:52.692Z,98803.59
2023-03-08T19:52:54.636Z,98791.69
2023-03-08T19:56:57.647Z,98794.94
2023-03-08T20:01:08.570Z,98791.00
2023-03-08T20:05:10.589Z,98789.59
2023-03-08T20:09:14.794Z,98776.41
2023-03-08T20:13:16.736Z,98773.69
2023-03-08T20:17:18.766Z,98762.44
2023-03-08T20:21:20.873Z,98753.28
2023-03-08T20:25:23.130Z,98743.28
2023-03-08T20:29:25.036Z,98745.94
2023-03-08T20:33:27.058Z,98742.34
2023-03-08T20:37:28.970Z,98735.22
2023-03-08T20:41:31.110Z,98731.16
2023-03-08T20:45:33.147Z,98729.47
2023-03-08T20:49:35.178Z,98721.13
2023-03-08T20:53:37.447Z,98710.31
2023-03-08T20:57:39.501Z,98706.81
2023-03-08T21:01:43.113Z,98701.66
2023-03-08T21:05:45.257Z,98693.91
2023-03-08T21:09:47.240Z,98683.84
2023-03-08T21:13:50.659Z,98681.81
2023-03-08T21:17:52.712Z,98680.41
2023-03-08T21:21:54.805Z,98676.31
2023-03-08T21:26:00.101Z,98672.94
2023-03-08T21:30:03.200Z,98662.41
2023-03-08T21:34:06.427Z,98661.56
2023-03-08T21:38:09.155Z,98671.22
2023-03-08T21:42:10.887Z,98649.53
2023-03-08T21:46:13.070Z,98642.16
2023-03-08T21:50:15.243Z,98638.00
2023-03-08T21:54:17.589Z,98634.47
2023-03-08T21:58:19.675Z,98619.03
2023-03-08T22:02:21.812Z,98618.38
2023-03-08T22:06:24.254Z,98624.22
2023-03-08T22:10:26.280Z,98619.56
2023-03-08T22:14:28.782Z,98616.44
2023-03-08T22:18:32.285Z,98621.38
2023-03-08T22:22:34.277Z,98617.13
2023-03-08T22:26:36.505Z,98617.53
2023-03-08T22:30:41.245Z,98607.34
2023-03-08T22:34:43.233Z,98605.31
2023-03-08T22:38:45.404Z,98597.84
2023-03-08T22:42:47.526Z,98597.91
2023-03-08T22:46:49.482Z,98598.66
2023-03-08T22:51:04.738Z,98604.47
2023-03-08T22:55:12.376Z,98599.31
2023-03-08T22:59:15.112Z,98586.16
2023-03-08T23:03:17.223Z,98583.81
2023-03-08T23:07:19.242Z,98580.22
2023-03-08T23:11:21.554Z,98580.22
2023-03-08T23:15:23.823Z,98584.63
2023-03-08T23:19:26.420Z,98577.63
2023-03-08T23:23:28.567Z,98578.63
2023-03-08T23:27:31.182Z,98573.69
2023-03-08T23:31:35.594Z,98568.44
2023-03-08T23:35:37.779Z,98564.78
2023-03-08T23:39:40.100Z,98565.38
2023-03-08T23:43:42.887Z,98568.25
2023-03-08T23:47:44.955Z,98565.19
2023-03-08T23:51:47.058Z,98562.06
2023-03-08T23:55:49.076Z,98557.66
2023-03-08T23:59:51.229Z,98553.41
